Time;durP1;ratioP1;P1;durP2;ratioP2;P2;SDS_P1;SDS_P2;PMS_P1;PMS_P2;Temp;Humidity;BMP_temperature;BMP_pressure;BME280_temperature;BME280_humidity;BME280_pressure;Samples;Min_cycle;Max_cycle;Signal;HPM_P1;HPM_P2
2022/07/13 00:02:25;;;;;;;;;;;21.90;99.90;;;;;;5032543;28;20385;-68
2022/07/13 00:04:52;;;;;;;;;;;21.90;99.90;;;;;;5032721;28;20355;-67
2022/07/13 00:07:18;;;;;;;;;;;21.80;99.90;;;;;;5032363;28;19925;-67
2022/07/13 00:09:45;;;;;;;;;;;21.70;99.90;;;;;;5032495;28;19972;-67
2022/07/13 00:12:13;;;;;;;;;;;21.60;99.90;;;;;;5032633;28;20340;-67
2022/07/13 00:14:40;;;;;;;;;;;21.60;99.90;;;;;;5032925;28;19925;-67
2022/07/13 00:17:07;;;;;;;;;;;21.60;99.90;;;;;;5032890;28;20393;-67
2022/07/13 00:19:34;;;;;;;;;;;21.60;99.90;;;;;;5032609;28;19933;-67
2022/07/13 00:22:00;;;;;;;;;;;21.60;99.90;;;;;;5032328;28;20004;-67
2022/07/13 00:24:27;;;;;;;;;;;21.60;99.90;;;;;;5032416;28;20400;-67
2022/07/13 00:26:54;;;;;;;;;;;21.70;99.90;;;;;;5032369;28;20443;-67
2022/07/13 00:29:22;;;;;;;;;;;21.70;99.90;;;;;;5031987;28;20381;-68
2022/07/13 00:31:49;;;;;;;;;;;21.80;99.90;;;;;;5032243;28;19925;-67
2022/07/13 00:34:16;;;;;;;;;;;21.90;99.90;;;;;;5032276;28;19956;-67
2022/07/13 00:36:42;;;;;;;;;;;21.80;99.90;;;;;;5032498;28;20281;-67
2022/07/13 00:39:09;;;;;;;;;;;21.80;99.90;;;;;;5031773;28;19978;-67
2022/07/13 00:41:36;;;;;;;;;;;21.80;99.90;;;;;;5032060;28;19987;-67
2022/07/13 00:44:07;;;;;;;;;;;21.80;99.90;;;;;;5032201;28;19925;-67
2022/07/13 00:46:35;;;;;;;;;;;21.80;99.90;;;;;;5032025;28;20004;-67
2022/07/13 00:49:02;;;;;;;;;;;21.80;99.90;;;;;;5031726;28;19929;-68
2022/07/13 00:51:29;;;;;;;;;;;21.80;99.90;;;;;;5031946;28;19964;-67
2022/07/13 00:53:56;;;;;;;;;;;21.80;99.90;;;;;;5033129;28;19925;-67
2022/07/13 00:56:24;;;;;;;;;;;21.90;99.90;;;;;;5031004;28;19925;-67
2022/07/13 00:58:51;;;;;;;;;;;21.90;99.90;;;;;;5031688;28;19925;-65
2022/07/13 01:01:18;;;;;;;;;;;21.80;99.90;;;;;;5031578;28;19929;-67
2022/07/13 01:03:46;;;;;;;;;;;21.70;99.90;;;;;;5031479;28;20472;-67
2022/07/13 01:06:13;;;;;;;;;;;21.80;99.90;;;;;;5031279;28;19987;-67
2022/07/13 01:08:40;;;;;;;;;;;21.70;99.90;;;;;;5031952;28;19933;-67
2022/07/13 01:11:08;;;;;;;;;;;21.70;99.90;;;;;;5031482;28;19925;-67
2022/07/13 01:13:35;;;;;;;;;;;21.70;99.90;;;;;;5031807;28;20412;-68
2022/07/13 01:16:03;;;;;;;;;;;21.70;99.90;;;;;;5031526;28;19929;-67
2022/07/13 01:18:30;;;;;;;;;;;21.80;99.90;;;;;;5031582;28;19933;-67
2022/07/13 01:20:59;;;;;;;;;;;21.80;99.90;;;;;;5031254;28;19929;-68
2022/07/13 01:23:27;;;;;;;;;;;21.80;99.90;;;;;;5031208;28;19929;-67
2022/07/13 01:25:56;;;;;;;;;;;21.80;99.90;;;;;;5031337;28;19929;-68
2022/07/13 01:28:23;;;;;;;;;;;21.70;99.90;;;;;;5031199;28;19925;-67
2022/07/13 01:30:50;;;;;;;;;;;21.70;99.90;;;;;;5031333;28;19948;-67
2022/07/13 01:33:16;;;;;;;;;;;21.70;99.90;;;;;;5047949;28;19968;-67
2022/07/13 01:35:43;;;;;;;;;;;21.70;99.90;;;;;;5031405;28;19968;-67
2022/07/13 01:38:10;;;;;;;;;;;21.70;99.90;;;;;;5031171;28;19925;-67
2022/07/13 01:40:39;;;;;;;;;;;21.70;99.90;;;;;;5031170;28;19925;-67
2022/07/13 01:43:08;;;;;;;;;;;21.80;99.90;;;;;;5031190;28;19925;-66
2022/07/13 01:45:34;;;;;;;;;;;21.80;99.90;;;;;;5030798;28;19929;-67
2022/07/13 01:48:01;;;;;;;;;;;21.80;99.90;;;;;;5030680;28;19926;-67
2022/07/13 01:50:29;;;;;;;;;;;21.80;99.90;;;;;;5030708;28;20016;-67
2022/07/13 01:52:56;;;;;;;;;;;21.80;99.90;;;;;;5031243;28;19964;-67
2022/07/13 01:55:23;;;;;;;;;;;21.70;99.90;;;;;;5030945;28;20012;-67
2022/07/13 01:57:56;;;;;;;;;;;21.70;99.90;;;;;;5030965;28;20351;-67
2022/07/13 02:00:23;;;;;;;;;;;21.70;99.90;;;;;;5030663;28;19925;-69
2022/07/13 02:02:50;;;;;;;;;;;21.70;99.90;;;;;;5031119;28;19925;-67
2022/07/13 02:05:19;;;;;;;;;;;21.70;99.90;;;;;;5064155;23;19925;-66
2022/07/13 02:07:46;;;;;;;;;;;21.60;99.90;;;;;;5050647;28;19925;-66
2022/07/13 02:10:13;;;;;;;;;;;21.50;99.90;;;;;;5054561;28;20347;-66
2022/07/13 02:12:41;;;;;;;;;;;21.40;99.90;;;;;;5054903;28;20019;-67
2022/07/13 02:15:10;;;;;;;;;;;21.40;99.90;;;;;;5055014;28;19925;-66
2022/07/13 02:17:38;;;;;;;;;;;21.30;99.90;;;;;;5056025;28;19925;-67
2022/07/13 02:20:07;;;;;;;;;;;21.30;99.90;;;;;;5054661;28;19925;-66
2022/07/13 02:22:43;;;;;;;;;;;21.20;99.90;;;;;;5054686;28;19929;-66
2022/07/13 02:25:10;;;;;;;;;;;21.20;99.90;;;;;;5054653;28;19929;-67
2022/07/13 02:27:38;;;;;;;;;;;21.30;99.90;;;;;;5054906;28;19931;-67
2022/07/13 02:30:07;;;;;;;;;;;21.20;99.90;;;;;;5054292;28;19955;-67
2022/07/13 02:32:35;;;;;;;;;;;21.20;99.90;;;;;;5054525;28;19929;-67
2022/07/13 02:35:03;;;;;;;;;;;21.20;99.90;;;;;;5054358;28;20459;-66
2022/07/13 02:37:30;;;;;;;;;;;21.30;99.90;;;;;;5054442;28;19936;-67
2022/07/13 02:39:56;;;;;;;;;;;21.30;99.90;;;;;;5054411;28;19925;-67
2022/07/13 02:42:24;;;;;;;;;;;21.40;99.90;;;;;;5054460;28;19928;-67
2022/07/13 02:44:51;;;;;;;;;;;21.40;99.90;;;;;;5054205;28;19932;-66
2022/07/13 02:47:17;;;;;;;;;;;21.30;99.90;;;;;;5054212;28;19925;-66
2022/07/13 02:49:46;;;;;;;;;;;21.20;99.90;;;;;;5053972;28;19932;-67
2022/07/13 02:52:13;;;;;;;;;;;21.20;99.90;;;;;;5054512;28;19932;-67
2022/07/13 02:54:40;;;;;;;;;;;21.20;99.90;;;;;;5054291;28;19975;-66
2022/07/13 02:57:06;;;;;;;;;;;21.30;99.90;;;;;;5054475;28;20387;-67
2022/07/13 02:59:35;;;;;;;;;;;21.20;99.90;;;;;;5053821;28;20028;-67
2022/07/13 03:02:02;;;;;;;;;;;21.20;99.90;;;;;;5054019;28;19925;-67
2022/07/13 03:04:29;;;;;;;;;;;21.20;99.90;;;;;;5053748;28;19924;-67
2022/07/13 03:06:59;;;;;;;;;;;21.10;99.90;;;;;;5053588;28;19925;-67
2022/07/13 03:09:26;;;;;;;;;;;21.00;99.90;;;;;;5053912;28;19925;-67
2022/07/13 03:11:53;;;;;;;;;;;21.00;99.90;;;;;;5054087;28;20364;-67
2022/07/13 03:14:19;;;;;;;;;;;21.00;99.90;;;;;;5053741;28;20020;-67
2022/07/13 03:16:47;;;;;;;;;;;21.00;99.90;;;;;;5054017;28;19929;-67
2022/07/13 03:19:14;;;;;;;;;;;21.00;99.90;;;;;;5052871;28;19925;-67
2022/07/13 03:21:41;;;;;;;;;;;21.00;99.90;;;;;;5053811;28;19924;-67
2022/07/13 03:24:09;;;;;;;;;;;21.00;99.90;;;;;;5053670;28;19925;-66
2022/07/13 03:26:36;;;;;;;;;;;21.00;99.90;;;;;;5053527;28;20404;-66
2022/07/13 03:29:03;;;;;;;;;;;21.00;99.90;;;;;;5053335;28;20015;-67
2022/07/13 03:31:30;;;;;;;;;;;21.00;99.90;;;;;;5053352;28;19933;-66
2022/07/13 03:33:57;;;;;;;;;;;21.00;99.90;;;;;;5053583;28;19932;-66
2022/07/13 03:36:25;;;;;;;;;;;21.00;99.90;;;;;;5053450;28;19935;-67
2022/07/13 03:38:52;;;;;;;;;;;21.00;99.90;;;;;;5053229;28;19932;-67
2022/07/13 03:41:21;;;;;;;;;;;21.10;99.90;;;;;;5053318;28;20017;-68
2022/07/13 03:43:48;;;;;;;;;;;21.10;99.90;;;;;;5053348;28;20024;-67
2022/07/13 03:46:15;;;;;;;;;;;21.10;99.90;;;;;;5053337;28;19935;-67
2022/07/13 03:48:42;;;;;;;;;;;21.10;99.90;;;;;;5053099;28;19924;-67
2022/07/13 03:51:09;;;;;;;;;;;21.10;99.90;;;;;;5053115;28;20016;-67
2022/07/13 03:53:36;;;;;;;;;;;21.20;99.90;;;;;;5053315;28;20028;-67
2022/07/13 03:56:05;;;;;;;;;;;21.20;99.90;;;;;;5052679;28;19939;-66
2022/07/13 03:58:34;;;;;;;;;;;21.20;99.90;;;;;;5052794;28;19928;-67
2022/07/13 04:01:02;;;;;;;;;;;21.20;99.90;;;;;;5052656;28;19925;-66
2022/07/13 04:03:29;;;;;;;;;;;21.00;99.90;;;;;;5052989;28;19924;-66
2022/07/13 04:05:58;;;;;;;;;;;21.10;99.90;;;;;;5035758;28;23186;-67
2022/07/13 04:08:25;;;;;;;;;;;21.10;99.90;;;;;;5052860;28;19929;-68
2022/07/13 04:10:53;;;;;;;;;;;21.10;99.90;;;;;;5052237;28;19935;-67
2022/07/13 04:13:20;;;;;;;;;;;21.00;99.90;;;;;;5052764;28;19975;-66
2022/07/13 04:15:48;;;;;;;;;;;21.00;99.90;;;;;;5052493;28;19956;-67
2022/07/13 04:18:16;;;;;;;;;;;20.90;99.90;;;;;;5052649;28;19995;-66
2022/07/13 04:20:43;;;;;;;;;;;20.90;99.90;;;;;;5052214;28;20373;-67
2022/07/13 04:23:10;;;;;;;;;;;20.90;99.90;;;;;;5052416;28;20343;-68
2022/07/13 04:25:37;;;;;;;;;;;21.00;99.90;;;;;;5052432;28;19928;-66
2022/07/13 04:28:04;;;;;;;;;;;21.10;99.90;;;;;;5052631;28;19932;-66
2022/07/13 04:30:32;;;;;;;;;;;21.20;99.90;;;;;;5051933;28;19925;-66
2022/07/13 04:33:02;;;;;;;;;;;21.20;99.90;;;;;;5052283;28;19925;-67
2022/07/13 04:35:30;;;;;;;;;;;21.20;99.90;;;;;;5052161;28;19925;-66
2022/07/13 04:37:57;;;;;;;;;;;21.10;99.90;;;;;;5052098;28;19960;-67
2022/07/13 04:40:26;;;;;;;;;;;21.10;99.90;;;;;;5052002;28;19929;-66
2022/07/13 04:42:53;;;;;;;;;;;21.10;99.90;;;;;;5052139;28;19931;-68
2022/07/13 04:45:20;;;;;;;;;;;21.10;99.90;;;;;;5052173;28;19924;-67
2022/07/13 04:47:52;;;;;;;;;;;21.10;99.90;;;;;;5052128;28;19925;-67
2022/07/13 04:50:20;;;;;;;;;;;21.10;99.90;;;;;;5051801;28;19924;-68
2022/07/13 04:52:47;;;;;;;;;;;21.20;99.90;;;;;;5052181;28;20387;-67
2022/07/13 04:55:16;;;;;;;;;;;21.20;99.90;;;;;;5051828;28;19925;-67
2022/07/13 04:57:43;;;;;;;;;;;21.30;99.90;;;;;;5051834;28;19932;-67
2022/07/13 05:00:10;;;;;;;;;;;21.40;99.90;;;;;;5051605;28;19925;-68
2022/07/13 05:02:37;;;;;;;;;;;21.40;99.90;;;;;;5041107;28;19998;-67
2022/07/13 05:05:05;;;;;;;;;;;21.40;99.90;;;;;;5042686;28;19925;-66
2022/07/13 05:07:33;;;;;;;;;;;21.40;99.90;;;;;;5039600;28;19929;-66
2022/07/13 05:10:00;;;;;;;;;;;21.50;99.90;;;;;;5031402;28;19975;-67
2022/07/13 05:12:26;;;;;;;;;;;21.50;99.90;;;;;;5048373;28;20380;-68
2022/07/13 05:14:53;;;;;;;;;;;21.60;99.90;;;;;;5051512;28;20023;-68
2022/07/13 05:17:20;;;;;;;;;;;21.70;99.90;;;;;;5051400;28;19925;-69
2022/07/13 05:19:47;;;;;;;;;;;21.80;99.90;;;;;;5044044;28;19931;-68
2022/07/13 05:22:15;;;;;;;;;;;21.90;99.90;;;;;;5031465;28;19925;-69
2022/07/13 05:24:44;;;;;;;;;;;22.00;99.90;;;;;;5031320;28;19925;-67
2022/07/13 05:27:12;;;;;;;;;;;22.00;99.90;;;;;;5031588;28;20024;-69
2022/07/13 05:29:41;;;;;;;;;;;22.00;99.90;;;;;;5031282;28;19932;-68
2022/07/13 05:32:07;;;;;;;;;;;22.00;99.90;;;;;;5031218;28;19925;-68
2022/07/13 05:34:34;;;;;;;;;;;22.10;99.90;;;;;;5031231;28;19925;-68
2022/07/13 05:37:01;;;;;;;;;;;22.20;99.90;;;;;;5039890;28;20458;-67
2022/07/13 05:39:29;;;;;;;;;;;22.30;99.90;;;;;;5050621;28;19925;-68
2022/07/13 05:41:58;;;;;;;;;;;22.40;99.90;;;;;;5051108;28;19925;-67
2022/07/13 05:44:25;;;;;;;;;;;22.40;99.90;;;;;;5050788;28;20023;-67
2022/07/13 05:46:51;;;;;;;;;;;22.30;99.90;;;;;;5051069;28;19933;-68
2022/07/13 05:49:19;;;;;;;;;;;22.40;99.90;;;;;;5050717;28;19971;-68
2022/07/13 05:51:46;;;;;;;;;;;22.40;99.90;;;;;;5050932;28;19924;-68
2022/07/13 05:54:13;;;;;;;;;;;22.30;99.90;;;;;;5051127;28;19925;-68
2022/07/13 05:56:40;;;;;;;;;;;22.40;99.90;;;;;;5050964;28;20020;-67
2022/07/13 05:59:09;;;;;;;;;;;22.50;99.90;;;;;;5050449;28;20308;-68
2022/07/13 06:01:35;;;;;;;;;;;22.60;99.90;;;;;;5050882;28;19925;-68
2022/07/13 06:04:02;;;;;;;;;;;22.70;99.90;;;;;;5050550;28;19932;-68
2022/07/13 06:06:29;;;;;;;;;;;22.90;99.90;;;;;;5050540;28;19933;-68
2022/07/13 06:08:56;;;;;;;;;;;23.10;99.90;;;;;;5050599;28;19948;-69
2022/07/13 06:11:22;;;;;;;;;;;23.20;99.90;;;;;;5050888;28;19925;-68
2022/07/13 06:13:49;;;;;;;;;;;23.30;99.90;;;;;;5050684;28;19925;-68
2022/07/13 06:16:17;;;;;;;;;;;23.40;99.90;;;;;;5050670;28;20388;-69
2022/07/13 06:18:44;;;;;;;;;;;23.50;99.90;;;;;;5050746;28;20462;-68
2022/07/13 06:21:11;;;;;;;;;;;23.70;99.90;;;;;;5050686;28;19925;-69
2022/07/13 06:23:38;;;;;;;;;;;23.80;99.90;;;;;;5050791;28;19932;-68
2022/07/13 06:26:05;;;;;;;;;;;23.70;99.90;;;;;;5050871;28;19925;-68
2022/07/13 06:28:31;;;;;;;;;;;23.70;99.90;;;;;;5050716;28;19940;-68
2022/07/13 06:30:58;;;;;;;;;;;23.70;99.90;;;;;;5050355;28;19929;-68
2022/07/13 06:33:26;;;;;;;;;;;23.80;99.90;;;;;;5050636;28;19933;-69
2022/07/13 06:35:53;;;;;;;;;;;23.90;99.90;;;;;;5050457;28;19925;-69
2022/07/13 06:38:20;;;;;;;;;;;24.00;99.90;;;;;;5050258;28;19929;-68
2022/07/13 06:40:47;;;;;;;;;;;24.10;99.90;;;;;;5050402;28;19936;-68
2022/07/13 06:43:14;;;;;;;;;;;24.10;99.90;;;;;;5050718;28;19924;-68
2022/07/13 06:45:41;;;;;;;;;;;24.30;99.90;;;;;;5050309;28;19925;-68
2022/07/13 06:48:07;;;;;;;;;;;24.50;99.90;;;;;;5050325;28;19933;-68
2022/07/13 06:50:36;;;;;;;;;;;24.80;99.90;;;;;;5050296;28;19925;-68
2022/07/13 06:53:03;;;;;;;;;;;25.00;99.90;;;;;;5050273;28;19924;-69
2022/07/13 06:55:30;;;;;;;;;;;25.20;99.90;;;;;;5052312;28;19932;-68
2022/07/13 06:57:56;;;;;;;;;;;25.40;99.90;;;;;;5053951;28;19925;-69
2022/07/13 07:00:23;;;;;;;;;;;25.40;99.90;;;;;;5053782;28;19937;-68
2022/07/13 07:02:50;;;;;;;;;;;25.40;99.90;;;;;;5053994;28;19925;-68
2022/07/13 07:05:17;;;;;;;;;;;25.50;99.90;;;;;;5053990;28;19924;-68
2022/07/13 07:07:45;;;;;;;;;;;25.50;99.90;;;;;;5053827;28;19925;-69
2022/07/13 07:10:12;;;;;;;;;;;25.40;99.90;;;;;;5052699;28;19925;-68
2022/07/13 07:12:39;;;;;;;;;;;25.40;99.90;;;;;;5033948;28;20458;-69
2022/07/13 07:15:07;;;;;;;;;;;25.40;99.90;;;;;;5033645;28;19925;-68
2022/07/13 07:17:33;;;;;;;;;;;25.40;99.90;;;;;;5033845;28;20443;-69
2022/07/13 07:20:03;;;;;;;;;;;25.50;99.90;;;;;;5033621;28;19925;-69
2022/07/13 07:22:30;;;;;;;;;;;25.60;99.90;;;;;;5033589;28;19925;-69
2022/07/13 07:24:58;;;;;;;;;;;25.70;99.90;;;;;;5033449;28;19925;-69
2022/07/13 07:27:25;;;;;;;;;;;25.80;99.90;;;;;;5033789;28;19972;-68
2022/07/13 07:29:51;;;;;;;;;;;25.80;99.90;;;;;;5033308;28;20293;-68
2022/07/13 07:32:18;;;;;;;;;;;25.80;99.90;;;;;;5033507;28;19928;-69
2022/07/13 07:34:45;;;;;;;;;;;25.80;99.90;;;;;;5033367;28;19929;-69
2022/07/13 07:37:12;;;;;;;;;;;25.70;99.90;;;;;;5033230;28;20281;-68
2022/07/13 07:39:40;;;;;;;;;;;25.70;99.90;;;;;;5033065;28;20355;-69
2022/07/13 07:42:08;;;;;;;;;;;25.70;99.90;;;;;;5033364;28;19932;-69
2022/07/13 07:44:35;;;;;;;;;;;25.70;99.90;;;;;;5033115;28;19925;-71
2022/07/13 07:47:02;;;;;;;;;;;25.70;99.90;;;;;;5033147;28;19925;-69
2022/07/13 07:49:28;;;;;;;;;;;25.70;99.90;;;;;;5033046;28;19933;-68
2022/07/13 07:51:55;;;;;;;;;;;25.70;99.90;;;;;;5032912;28;19925;-69
2022/07/13 07:54:22;;;;;;;;;;;25.80;99.90;;;;;;5032939;28;20415;-69
2022/07/13 07:56:49;;;;;;;;;;;25.90;99.90;;;;;;5032850;28;19925;-68
2022/07/13 07:59:17;;;;;;;;;;;26.00;99.90;;;;;;5032651;28;19925;-68
2022/07/13 08:01:44;;;;;;;;;;;26.10;99.90;;;;;;5033072;28;19929;-69
2022/07/13 08:07:18;;;;;;;;;;;26.20;99.90;;;;;;5031074;28;20301;-66
2022/07/13 08:09:44;;;;;;;;;;;26.60;99.90;;;;;;5032718;28;19964;-67
2022/07/13 08:12:11;;;;;;;;;;;26.80;99.90;;;;;;5033737;28;19956;-65
2022/07/13 08:14:39;;;;;;;;;;;26.90;99.90;;;;;;5032939;28;19929;-66
2022/07/13 08:17:06;;;;;;;;;;;26.90;99.90;;;;;;5016291;28;20032;-67
2022/07/13 08:19:32;;;;;;;;;;;26.90;99.90;;;;;;5015887;28;20367;-66
2022/07/13 08:22:00;;;;;;;;;;;26.70;99.90;;;;;;5015929;28;19925;-65
2022/07/13 08:24:26;;;;;;;;;;;26.60;99.90;;;;;;5015822;28;19925;-66
2022/07/13 08:26:54;;;;;;;;;;;26.60;99.90;;;;;;5016009;28;19925;-66
2022/07/13 08:29:21;;;;;;;;;;;26.80;99.90;;;;;;5015648;28;20363;-66
2022/07/13 08:31:49;;;;;;;;;;;27.00;99.90;;;;;;5016045;28;19957;-67
2022/07/13 08:39:44;;;;;;;;;;;27.20;99.90;;;;;;5015410;28;19961;-67
2022/07/13 08:42:13;;;;;;;;;;;27.30;99.90;;;;;;5016016;28;19936;-67
2022/07/13 08:44:40;;;;;;;;;;;27.50;99.90;;;;;;5015685;28;19929;-66
2022/07/13 08:47:10;;;;;;;;;;;27.70;99.90;;;;;;5015827;28;19925;-66
2022/07/13 08:49:37;;;;;;;;;;;27.70;99.90;;;;;;5015349;28;19929;-66
2022/07/13 08:52:04;;;;;;;;;;;27.80;99.90;;;;;;5031623;28;19929;-66
2022/07/13 08:54:31;;;;;;;;;;;27.90;99.90;;;;;;5015339;28;19929;-68
2022/07/13 08:56:58;;;;;;;;;;;27.80;99.90;;;;;;5015505;28;19925;-66
2022/07/13 08:59:24;;;;;;;;;;;27.80;99.90;;;;;;5015267;28;19926;-66
2022/07/13 09:01:51;;;;;;;;;;;27.60;99.90;;;;;;5015307;28;19933;-67
2022/07/13 09:04:19;;;;;;;;;;;27.60;99.90;;;;;;5015289;28;19925;-66
2022/07/13 09:06:48;;;;;;;;;;;27.60;99.90;;;;;;5014959;28;20277;-66
2022/07/13 09:09:32;;;;;;;;;;;27.70;99.90;;;;;;5015365;28;19925;-66
2022/07/13 09:12:14;;;;;;;;;;;27.90;99.90;;;;;;5011929;28;19926;-66
2022/07/13 09:14:41;;;;;;;;;;;28.10;99.90;;;;;;5011626;28;20325;-66
2022/07/13 09:17:07;;;;;;;;;;;28.20;99.90;;;;;;5011418;28;19929;-67
2022/07/13 09:19:37;;;;;;;;;;;28.00;99.90;;;;;;5011409;28;19925;-66
2022/07/13 09:22:12;;;;;;;;;;;28.30;99.90;;;;;;5011600;28;19932;-67
2022/07/13 09:24:45;;;;;;;;;;;28.20;99.90;;;;;;5011874;28;19925;-66
2022/07/13 09:27:12;;;;;;;;;;;28.20;99.90;;;;;;5011489;28;20426;-66
2022/07/13 09:29:39;;;;;;;;;;;28.40;99.90;;;;;;5011282;28;20348;-66
2022/07/13 09:32:08;;;;;;;;;;;28.40;99.90;;;;;;5011496;28;19929;-66
2022/07/13 09:34:47;;;;;;;;;;;28.50;99.90;;;;;;5011500;28;20023;-66
2022/07/13 09:37:15;;;;;;;;;;;28.60;99.90;;;;;;5011479;28;19925;-66
2022/07/13 09:39:57;;;;;;;;;;;28.60;99.90;;;;;;5011167;28;19948;-66
2022/07/13 09:42:28;;;;;;;;;;;28.30;99.90;;;;;;5011446;28;19932;-66
2022/07/13 09:47:41;;;;;;;;;;;28.40;99.90;;;;;;5011705;28;19976;-66
2022/07/13 09:50:09;;;;;;;;;;;28.50;99.90;;;;;;5011029;28;19926;-69
2022/07/13 09:52:36;;;;;;;;;;;28.80;99.90;;;;;;5011325;28;19929;-67
2022/07/13 09:55:04;;;;;;;;;;;29.00;99.90;;;;;;5011116;28;19961;-66
2022/07/13 09:57:34;;;;;;;;;;;29.20;99.90;;;;;;5011177;28;19936;-66
2022/07/13 10:00:01;;;;;;;;;;;29.50;99.90;;;;;;5011117;28;19926;-66
2022/07/13 10:02:31;;;;;;;;;;;29.40;99.90;;;;;;5012386;28;19929;-67
2022/07/13 10:04:58;;;;;;;;;;;29.60;99.90;;;;;;5010980;28;19926;-66
2022/07/13 10:07:27;;;;;;;;;;;29.20;99.90;;;;;;5011064;28;20028;-67
2022/07/13 10:09:54;;;;;;;;;;;29.20;99.90;;;;;;5010752;28;19965;-67
2022/07/13 10:12:21;;;;;;;;;;;29.50;99.90;;;;;;5029038;28;20363;-66
2022/07/13 10:14:48;;;;;;;;;;;29.20;99.90;;;;;;5014626;28;19925;-65
2022/07/13 10:17:15;;;;;;;;;;;29.10;99.90;;;;;;5014461;28;20020;-66
2022/07/13 10:19:43;;;;;;;;;;;29.20;99.90;;;;;;5014103;28;19925;-66
2022/07/13 10:22:11;;;;;;;;;;;29.30;99.90;;;;;;5014188;28;19960;-66
2022/07/13 10:24:50;;;;;;;;;;;29.40;99.90;;;;;;5014133;28;20299;-67
2022/07/13 10:27:22;;;;;;;;;;;29.70;99.90;;;;;;5014560;28;19979;-66
2022/07/13 10:29:49;;;;;;;;;;;29.70;99.90;;;;;;5016635;28;20299;-66
2022/07/13 10:32:17;;;;;;;;;;;29.70;99.90;;;;;;5018040;28;19932;-67
2022/07/13 10:34:51;;;;;;;;;;;29.70;99.90;;;;;;5017835;28;19932;-67
2022/07/13 10:37:18;;;;;;;;;;;29.20;99.90;;;;;;5017870;28;20020;-67
2022/07/13 10:39:59;;;;;;;;;;;29.10;99.90;;;;;;5034094;28;19952;-68
2022/07/13 10:42:27;;;;;;;;;;;29.00;99.90;;;;;;5017061;28;19936;-66
2022/07/13 10:44:54;;;;;;;;;;;29.10;99.90;;;;;;5017678;28;19929;-67
2022/07/13 10:47:41;;;;;;;;;;;29.50;99.90;;;;;;5017809;28;19925;-67
2022/07/13 10:50:22;;;;;;;;;;;29.90;99.90;;;;;;5017322;28;20377;-66
2022/07/13 10:52:50;;;;;;;;;;;29.90;99.90;;;;;;5017704;28;19925;-67
2022/07/13 10:55:23;;;;;;;;;;;30.10;99.90;;;;;;5017540;28;20385;-67
2022/07/13 10:57:52;;;;;;;;;;;30.00;99.90;;;;;;5017756;28;19934;-67
2022/07/13 11:00:22;;;;;;;;;;;29.60;99.90;;;;;;5017303;28;19925;-66
2022/07/13 11:02:50;;;;;;;;;;;29.60;99.90;;;;;;5017677;28;19925;-66
2022/07/13 11:05:17;;;;;;;;;;;29.70;99.90;;;;;;5017526;28;19932;-67
2022/07/13 11:07:45;;;;;;;;;;;30.00;99.90;;;;;;5017259;28;20351;-66
2022/07/13 11:10:16;;;;;;;;;;;30.00;99.90;;;;;;5017114;28;19929;-67
2022/07/13 11:12:58;;;;;;;;;;;30.00;99.90;;;;;;5017534;28;19929;-66
2022/07/13 11:15:24;;;;;;;;;;;30.30;99.90;;;;;;5017125;28;19936;-66
2022/07/13 11:17:52;;;;;;;;;;;30.40;99.90;;;;;;5017114;28;19925;-67
2022/07/13 11:20:19;;;;;;;;;;;30.40;99.90;;;;;;5033592;28;20426;-69
2022/07/13 11:25:43;;;;;;;;;;;30.90;99.90;;;;;;5017126;28;19932;-66
2022/07/13 11:28:23;;;;;;;;;;;30.60;99.90;;;;;;5016954;28;20415;-66
2022/07/13 11:30:52;;;;;;;;;;;30.20;99.90;;;;;;5016909;28;19925;-67
2022/07/13 11:33:19;;;;;;;;;;;30.00;99.90;;;;;;5016801;28;19929;-67
2022/07/13 11:35:47;;;;;;;;;;;30.30;99.90;;;;;;5017030;28;20002;-67
2022/07/13 11:38:15;;;;;;;;;;;30.70;99.90;;;;;;5016809;28;19932;-66
2022/07/13 11:40:42;;;;;;;;;;;31.10;99.90;;;;;;5015932;28;20397;-67
2022/07/13 11:43:27;;;;;;;;;;;31.60;99.90;;;;;;5016823;28;19925;-67
2022/07/13 11:45:55;;;;;;;;;;;32.60;99.90;;;;;;5016629;28;20351;-67
2022/07/13 11:48:24;;;;;;;;;;;33.70;99.90;;;;;;5016871;28;19964;-67
2022/07/13 11:50:52;;;;;;;;;;;33.90;99.90;;;;;;5016321;28;19925;-67
2022/07/13 11:53:23;;;;;;;;;;;33.40;99.90;;;;;;5016357;28;19960;-67
2022/07/13 11:55:50;;;;;;;;;;;33.40;99.90;;;;;;5016460;28;19964;-66
2022/07/13 11:58:23;;;;;;;;;;;32.70;99.90;;;;;;5016654;28;19925;-67
2022/07/13 12:00:50;;;;;;;;;;;32.40;99.90;;;;;;5016363;28;19925;-67
2022/07/13 12:03:26;;;;;;;;;;;32.20;99.90;;;;;;5016427;28;19931;-66
2022/07/13 12:05:53;;;;;;;;;;;32.30;99.90;;;;;;5016360;28;20389;-67
2022/07/13 12:08:20;;;;;;;;;;;32.20;99.90;;;;;;5016001;28;19933;-68
2022/07/13 12:10:46;;;;;;;;;;;32.60;99.90;;;;;;5015915;28;19925;-66
2022/07/13 12:13:13;;;;;;;;;;;33.40;99.90;;;;;;5016094;28;20285;-67
2022/07/13 12:15:40;;;;;;;;;;;34.10;99.90;;;;;;5016160;28;20296;-68
2022/07/13 12:18:09;;;;;;;;;;;34.60;99.90;;;;;;5016168;28;19925;-67
2022/07/13 12:20:38;;;;;;;;;;;34.70;99.90;;;;;;5015784;28;20392;-67
2022/07/13 12:23:06;;;;;;;;;;;34.00;99.90;;;;;;5016233;28;20384;-67
2022/07/13 12:25:34;;;;;;;;;;;34.30;99.90;;;;;;5015847;28;20435;-66
2022/07/13 12:28:01;;;;;;;;;;;34.20;99.90;;;;;;5016115;28;19925;-67
2022/07/13 12:30:28;;;;;;;;;;;34.50;99.90;;;;;;5015861;28;20456;-67
2022/07/13 12:32:55;;;;;;;;;;;34.60;99.90;;;;;;5015943;28;20420;-67
2022/07/13 12:35:22;;;;;;;;;;;34.80;99.90;;;;;;5032135;28;19925;-67
2022/07/13 12:37:52;;;;;;;;;;;34.10;99.90;;;;;;5016118;28;19932;-67
2022/07/13 12:40:43;;;;;;;;;;;35.00;99.90;;;;;;5015514;28;19929;-67
2022/07/13 12:43:16;;;;;;;;;;;34.50;99.90;;;;;;5000962;28;19925;-67
2022/07/13 12:45:44;;;;;;;;;;;33.80;99.90;;;;;;5015233;28;19932;-67
2022/07/13 12:48:15;;;;;;;;;;;34.90;99.90;;;;;;5015744;28;20028;-67
2022/07/13 12:50:42;;;;;;;;;;;35.40;99.90;;;;;;5015707;28;19925;-67
2022/07/13 12:53:10;;;;;;;;;;;35.60;99.90;;;;;;5014571;28;19929;-67
2022/07/13 12:55:52;;;;;;;;;;;35.20;99.90;;;;;;5015382;28;19925;-67
2022/07/13 12:58:20;;;;;;;;;;;35.20;99.90;;;;;;5015484;28;19925;-67
2022/07/13 13:00:47;;;;;;;;;;;34.70;99.90;;;;;;5015263;28;19932;-68
2022/07/13 13:03:13;;;;;;;;;;;34.30;99.90;;;;;;5015468;28;19925;-67
2022/07/13 13:05:41;;;;;;;;;;;34.50;99.90;;;;;;5015190;28;20373;-67
2022/07/13 13:08:08;;;;;;;;;;;34.30;99.90;;;;;;5015430;28;19925;-67
2022/07/13 13:10:36;;;;;;;;;;;34.90;99.90;;;;;;5011511;28;19965;-67
2022/07/13 13:13:03;;;;;;;;;;;35.90;99.90;;;;;;5012032;28;19937;-67
2022/07/13 13:15:30;;;;;;;;;;;35.60;99.90;;;;;;5011808;28;19925;-67
2022/07/13 13:17:56;;;;;;;;;;;35.20;99.90;;;;;;5012030;28;20290;-68
2022/07/13 13:20:23;;;;;;;;;;;34.20;99.90;;;;;;5011543;28;20444;-67
2022/07/13 13:22:50;;;;;;;;;;;34.30;99.90;;;;;;5011630;28;19964;-68
2022/07/13 13:25:17;;;;;;;;;;;34.30;99.90;;;;;;5011565;28;19983;-67
2022/07/13 13:27:45;;;;;;;;;;;34.80;99.90;;;;;;5011802;28;19979;-67
2022/07/13 13:32:55;;;;;;;;;;;34.70;99.90;;;;;;5012680;28;19921;-67
2022/07/13 13:35:22;;;;;;;;;;;34.80;99.90;;;;;;5011470;28;19926;-66
2022/07/13 13:37:49;;;;;;;;;;;34.70;99.90;;;;;;5011439;28;20401;-67
2022/07/13 13:40:16;;;;;;;;;;;34.50;99.90;;;;;;5011591;28;19968;-67
2022/07/13 13:42:43;;;;;;;;;;;34.10;99.90;;;;;;5011509;28;20392;-67
2022/07/13 13:45:12;;;;;;;;;;;33.80;99.90;;;;;;5011616;28;19972;-67
2022/07/13 13:47:38;;;;;;;;;;;33.40;99.90;;;;;;5011685;28;19984;-67
2022/07/13 13:50:06;;;;;;;;;;;33.50;99.90;;;;;;5011035;28;19933;-67
2022/07/13 13:52:32;;;;;;;;;;;33.90;99.90;;;;;;5011375;28;19926;-67
2022/07/13 13:54:59;;;;;;;;;;;33.50;99.90;;;;;;5011341;28;19926;-67
2022/07/13 13:57:26;;;;;;;;;;;32.90;99.90;;;;;;5011465;28;19956;-67
2022/07/13 13:59:52;;;;;;;;;;;33.40;99.90;;;;;;5010984;28;19976;-67
2022/07/13 14:02:20;;;;;;;;;;;33.70;99.90;;;;;;5011359;28;19956;-67
2022/07/13 14:04:47;;;;;;;;;;;33.50;99.90;;;;;;5040567;22;20393;-66
2022/07/13 14:07:14;;;;;;;;;;;33.30;99.90;;;;;;5037761;28;19925;-69
2022/07/13 14:09:41;;;;;;;;;;;33.10;99.90;;;;;;5055369;28;19932;-69
2022/07/13 14:12:07;;;;;;;;;;;32.70;99.90;;;;;;5038241;28;19997;-69
2022/07/13 14:14:34;;;;;;;;;;;32.30;99.90;;;;;;5038057;28;19947;-69
2022/07/13 14:17:00;;;;;;;;;;;32.00;99.90;;;;;;5018924;28;19925;-69
2022/07/13 14:19:29;;;;;;;;;;;31.90;99.90;;;;;;5018215;28;20023;-69
2022/07/13 14:21:56;;;;;;;;;;;32.30;99.90;;;;;;5018591;28;20032;-69
2022/07/13 14:24:23;;;;;;;;;;;32.90;99.90;;;;;;5035836;28;20008;-69
2022/07/13 14:26:50;;;;;;;;;;;33.60;99.90;;;;;;5034630;28;19925;-70
2022/07/13 14:29:17;;;;;;;;;;;34.20;99.90;;;;;;5018192;28;19925;-69
2022/07/13 14:31:44;;;;;;;;;;;34.70;99.90;;;;;;5018230;28;19980;-69
2022/07/13 14:34:11;;;;;;;;;;;34.00;99.90;;;;;;5017869;28;20388;-67
2022/07/13 14:36:39;;;;;;;;;;;33.60;99.90;;;;;;5018282;28;19925;-69
2022/07/13 14:39:06;;;;;;;;;;;33.60;99.90;;;;;;5017858;28;19925;-69